sensor_id;sensor_type;location;lat;lon;timestamp;pressure;altitude;pressure_sealevel;temperature;humidity
62420;BME280;48460;51.616;5.426;2023-03-12T00:01:57;101005.03;;;2.12;86.70
62420;BME280;48460;51.616;5.426;2023-03-12T00:04:28;101001.59;;;2.08;87.32
62420;BME280;48460;51.616;5.426;2023-03-12T00:10:37;100994.75;;;2.05;87.43
62420;BME280;48460;51.616;5.426;2023-03-12T00:16:36;100992.16;;;2.05;88.02
62420;BME280;48460;51.616;5.426;2023-03-12T00:19:36;100992.06;;;2.10;87.71
62420;BME280;48460;51.616;5.426;2023-03-12T00:25:28;100985.13;;;2.12;86.91
62420;BME280;48460;51.616;5.426;2023-03-12T00:28:02;100967.09;;;2.04;87.68
62420;BME280;48460;51.616;5.426;2023-03-12T00:30:37;100964.50;;;2.04;87.96
62420;BME280;48460;51.616;5.426;2023-03-12T00:33:25;100954.19;;;2.00;88.21
62420;BME280;48460;51.616;5.426;2023-03-12T00:39:33;100955.91;;;2.02;87.25
62420;BME280;48460;51.616;5.426;2023-03-12T00:45:35;100949.88;;;2.00;88.74
62420;BME280;48460;51.616;5.426;2023-03-12T01:01:56;100929.22;;;1.93;88.76
62420;BME280;48460;51.616;5.426;2023-03-12T01:11:02;100929.25;;;1.90;88.71
62420;BME280;48460;51.616;5.426;2023-03-12T01:14:03;100927.47;;;1.95;89.50
62420;BME280;48460;51.616;5.426;2023-03-12T01:16:36;100929.16;;;1.96;88.89
62420;BME280;48460;51.616;5.426;2023-03-12T01:19:07;100930.06;;;1.95;88.00
62420;BME280;48460;51.616;5.426;2023-03-12T01:25:12;100929.06;;;2.03;88.85
62420;BME280;48460;51.616;5.426;2023-03-12T01:31:04;100928.13;;;2.08;87.73
62420;BME280;48460;51.616;5.426;2023-03-12T01:33:34;100919.63;;;1.99;87.57
62420;BME280;48460;51.616;5.426;2023-03-12T01:36:02;100911.91;;;1.96;87.97
62420;BME280;48460;51.616;5.426;2023-03-12T01:38:28;100929.13;;;1.99;88.89
62420;BME280;48460;51.616;5.426;2023-03-12T01:41:32;100926.53;;;2.00;89.00
62420;BME280;48460;51.616;5.426;2023-03-12T01:44:03;100917.03;;;1.99;88.62
62420;BME280;48460;51.616;5.426;2023-03-12T01:46:43;100894.63;;;1.94;88.82
62420;BME280;48460;51.616;5.426;2023-03-12T01:52:35;100884.19;;;1.98;90.18
62420;BME280;48460;51.616;5.426;2023-03-12T02:05:44;100881.63;;;1.95;89.15
62420;BME280;48460;51.616;5.426;2023-03-12T02:12:08;100880.78;;;1.95;90.09
62420;BME280;48460;51.616;5.426;2023-03-12T02:14:34;100866.97;;;1.93;90.49
62420;BME280;48460;51.616;5.426;2023-03-12T02:17:12;100885.03;;;1.99;90.60
62420;BME280;48460;51.616;5.426;2023-03-12T02:19:54;100863.59;;;1.89;91.08
62420;BME280;48460;51.616;5.426;2023-03-12T02:22:23;100853.16;;;1.92;91.17
62420;BME280;48460;51.616;5.426;2023-03-12T02:24:55;100841.88;;;1.95;90.61
62420;BME280;48460;51.616;5.426;2023-03-12T02:27:35;100850.47;;;2.00;91.02
62420;BME280;48460;51.616;5.426;2023-03-12T02:30:04;100841.03;;;1.94;91.15
62420;BME280;48460;51.616;5.426;2023-03-12T02:32:53;100848.75;;;1.97;91.45
62420;BME280;48460;51.616;5.426;2023-03-12T02:35:22;100844.53;;;1.92;91.76
62420;BME280;48460;51.616;5.426;2023-03-12T02:43:35;100835.00;;;1.92;91.86
62420;BME280;48460;51.616;5.426;2023-03-12T02:46:09;100840.25;;;1.89;91.60
62420;BME280;48460;51.616;5.426;2023-03-12T02:48:35;100848.81;;;1.93;92.11
62420;BME280;48460;51.616;5.426;2023-03-12T02:51:04;100848.81;;;1.94;91.07
62420;BME280;48460;51.616;5.426;2023-03-12T03:18:28;100838.41;;;1.96;93.89
62420;BME280;48460;51.616;5.426;2023-03-12T03:24:56;100833.25;;;1.94;92.67
62420;BME280;48460;51.616;5.426;2023-03-12T03:54:57;100790.97;;;1.91;100.00
62420;BME280;48460;51.616;5.426;2023-03-12T04:04:11;100770.97;;;1.97;100.00
62420;BME280;48460;51.616;5.426;2023-03-12T04:06:39;100767.53;;;1.97;100.00
62420;BME280;48460;51.616;5.426;2023-03-12T04:09:05;100760.59;;;1.96;100.00
62420;BME280;48460;51.616;5.426;2023-03-12T04:18:36;100742.28;;;2.05;100.00
62420;BME280;48460;51.616;5.426;2023-03-12T04:24:35;100737.09;;;2.05;100.00
62420;BME280;48460;51.616;5.426;2023-03-12T04:31:04;100722.31;;;2.10;100.00
62420;BME280;48460;51.616;5.426;2023-03-12T04:37:11;100723.28;;;2.04;100.00
62420;BME280;48460;51.616;5.426;2023-03-12T04:46:40;100713.19;;;1.91;100.00
62420;BME280;48460;51.616;5.426;2023-03-12T04:49:10;100707.09;;;1.90;100.00
62420;BME280;48460;51.616;5.426;2023-03-12T04:51:48;100706.31;;;1.88;100.00
62420;BME280;48460;51.616;5.426;2023-03-12T04:54:19;100708.00;;;1.91;100.00
62420;BME280;48460;51.616;5.426;2023-03-12T04:56:57;100714.03;;;1.90;100.00
62420;BME280;48460;51.616;5.426;2023-03-12T04:59:23;100710.56;;;1.91;100.00
62420;BME280;48460;51.616;5.426;2023-03-12T05:01:48;100710.56;;;1.91;100.00
62420;BME280;48460;51.616;5.426;2023-03-12T05:04:42;100700.09;;;1.95;100.00
62420;BME280;48460;51.616;5.426;2023-03-12T05:10:42;100688.75;;;2.02;100.00
62420;BME280;48460;51.616;5.426;2023-03-12T05:13:20;100675.91;;;1.95;100.00
62420;BME280;48460;51.616;5.426;2023-03-12T05:15:46;100667.22;;;1.97;100.00
62420;BME280;48460;51.616;5.426;2023-03-12T05:18:15;100668.06;;;1.98;100.00
62420;BME280;48460;51.616;5.426;2023-03-12T05:24:25;100666.38;;;1.97;100.00
62420;BME280;48460;51.616;5.426;2023-03-12T05:26:52;100660.34;;;1.95;100.00
62420;BME280;48460;51.616;5.426;2023-03-12T05:29:41;100653.38;;;1.98;100.00
62420;BME280;48460;51.616;5.426;2023-03-12T05:35:30;100659.41;;;1.99;100.00
62420;BME280;48460;51.616;5.426;2023-03-12T05:38:23;100665.34;;;2.04;100.00
62420;BME280;48460;51.616;5.426;2023-03-12T05:40:53;100660.28;;;1.99;100.00
62420;BME280;48460;51.616;5.426;2023-03-12T05:43:31;100667.19;;;1.99;100.00
62420;BME280;48460;51.616;5.426;2023-03-12T05:52:48;100665.34;;;2.04;100.00
62420;BME280;48460;51.616;5.426;2023-03-12T05:55:18;100658.38;;;2.08;100.00
62420;BME280;48460;51.616;5.426;2023-03-12T05:57:49;100648.22;;;1.97;100.00
62420;BME280;48460;51.616;5.426;2023-03-12T06:04:39;100657.56;;;2.05;100.00
62420;BME280;48460;51.616;5.426;2023-03-12T06:10:36;100664.63;;;1.97;100.00
62420;BME280;48460;51.616;5.426;2023-03-12T06:13:24;100656.94;;;1.93;100.00
62420;BME280;48460;51.616;5.426;2023-03-12T06:15:52;100654.38;;;1.91;100.00
62420;BME280;48460;51.616;5.426;2023-03-12T06:21:41;100672.53;;;1.91;100.00
62420;BME280;48460;51.616;5.426;2023-03-12T06:24:13;100676.88;;;1.91;100.00
62420;BME280;48460;51.616;5.426;2023-03-12T06:26:43;100665.53;;;1.95;100.00
62420;BME280;48460;51.616;5.426;2023-03-12T06:29:16;100659.47;;;1.96;100.00
62420;BME280;48460;51.616;5.426;2023-03-12T07:26:30;100624.53;;;2.14;100.00
62420;BME280;48460;51.616;5.426;2023-03-12T07:29:07;100611.72;;;2.06;100.00
62420;BME280;48460;51.616;5.426;2023-03-12T07:31:56;100619.44;;;2.09;100.00
62420;BME280;48460;51.616;5.426;2023-03-12T07:34:25;100615.22;;;2.03;100.00
62420;BME280;48460;51.616;5.426;2023-03-12T07:36:56;100621.31;;;2.02;100.00
62420;BME280;48460;51.616;5.426;2023-03-12T07:39:26;100613.59;;;1.99;100.00
62420;BME280;48460;51.616;5.426;2023-03-12T07:42:03;100611.84;;;2.00;100.00
62420;BME280;48460;51.616;5.426;2023-03-12T07:44:31;100611.72;;;2.06;100.00
62420;BME280;48460;51.616;5.426;2023-03-12T07:47:01;100629.78;;;2.11;100.00
62420;BME280;48460;51.616;5.426;2023-03-12T07:49:29;100620.22;;;2.13;100.00
62420;BME280;48460;51.616;5.426;2023-03-12T07:59:11;100633.84;;;2.24;100.00
62420;BME280;48460;51.616;5.426;2023-03-12T08:05:16;100613.78;;;2.31;100.00
62420;BME280;48460;51.616;5.426;2023-03-12T08:11:46;100627.25;;;2.48;100.00
62420;BME280;48460;51.616;5.426;2023-03-12T08:17:54;100609.84;;;2.53;100.00
62420;BME280;48460;51.616;5.426;2023-03-12T08:24:03;100618.13;;;2.69;100.00
62420;BME280;48460;51.616;5.426;2023-03-12T08:42:44;100628.63;;;3.02;100.00
62420;BME280;48460;51.616;5.426;2023-03-12T08:48:43;100648.94;;;3.20;100.00
62420;BME280;48460;51.616;5.426;2023-03-12T09:02:03;100656.44;;;3.65;100.00
62420;BME280;48460;51.616;5.426;2023-03-12T09:04:52;100653.66;;;3.73;100.00
62420;BME280;48460;51.616;5.426;2023-03-12T09:07:22;100662.06;;;3.82;100.00
62420;BME280;48460;51.616;5.426;2023-03-12T09:13:17;100647.66;;;4.02;100.00
62420;BME280;48460;51.616;5.426;2023-03-12T09:16:03;100648.19;;;4.13;100.00
62420;BME280;48460;51.616;5.426;2023-03-12T09:18:53;100647.88;;;4.25;100.00
62420;BME280;48460;51.616;5.426;2023-03-12T09:21:22;100651.13;;;4.32;100.00
62420;BME280;48460;51.616;5.426;2023-03-12T09:23:54;100635.91;;;4.48;100.00
62420;BME280;48460;51.616;5.426;2023-03-12T09:30:27;100630.84;;;4.71;100.00
62420;BME280;48460;51.616;5.426;2023-03-12T09:46:38;100654.91;;;5.59;100.00
62420;BME280;48460;51.616;5.426;2023-03-12T09:56:41;100662.06;;;6.04;100.00
62420;BME280;48460;51.616;5.426;2023-03-12T09:59:16;100652.84;;;6.18;100.00
62420;BME280;48460;51.616;5.426;2023-03-12T10:05:38;100679.47;;;6.51;100.00
62420;BME280;48460;51.616;5.426;2023-03-12T10:15:08;100670.75;;;6.74;100.00
62420;BME280;48460;51.616;5.426;2023-03-12T10:26:46;100666.88;;;7.06;100.00
62420;BME280;48460;51.616;5.426;2023-03-12T10:35:19;100683.59;;;7.24;100.00
62420;BME280;48460;51.616;5.426;2023-03-12T10:38:00;100680.84;;;7.27;100.00
62420;BME280;48460;51.616;5.426;2023-03-12T10:40:30;100667.94;;;7.22;100.00
62420;BME280;48460;51.616;5.426;2023-03-12T10:42:58;100659.94;;;7.27;100.00
62420;BME280;48460;51.616;5.426;2023-03-12T10:48:42;100657.50;;;7.43;100.00
62420;BME280;48460;51.616;5.426;2023-03-12T10:55:10;100658.09;;;7.49;100.00
62420;BME280;48460;51.616;5.426;2023-03-12T11:19:05;100676.13;;;7.78;100.00
62420;BME280;48460;51.616;5.426;2023-03-12T11:22:06;100678.72;;;7.78;100.00
62420;BME280;48460;51.616;5.426;2023-03-12T11:25:02;100688.00;;;7.85;100.00
62420;BME280;48460;51.616;5.426;2023-03-12T11:27:50;100691.81;;;7.98;100.00
62420;BME280;48460;51.616;5.426;2023-03-12T11:30:31;100694.50;;;7.96;100.00
62420;BME280;48460;51.616;5.426;2023-03-12T11:33:09;100696.06;;;8.01;100.00
62420;BME280;48460;51.616;5.426;2023-03-12T11:38:49;100699.31;;;8.06;100.00
62420;BME280;48460;51.616;5.426;2023-03-12T11:44:40;100695.41;;;8.16;100.00
62420;BME280;48460;51.616;5.426;2023-03-12T11:47:31;100693.47;;;8.19;100.00
62420;BME280;48460;51.616;5.426;2023-03-12T11:53:57;100684.19;;;8.71;100.00
62420;BME280;48460;51.616;5.426;2023-03-12T12:03:59;100678.09;;;9.43;100.00
62420;BME280;48460;51.616;5.426;2023-03-12T12:12:33;100660.56;;;10.11;100.00
62420;BME280;48460;51.616;5.426;2023-03-12T12:15:29;100644.22;;;10.22;100.00
62420;BME280;48460;51.616;5.426;2023-03-12T12:25:20;100633.69;;;10.55;100.00
62420;BME280;48460;51.616;5.426;2023-03-12T12:32:11;100626.75;;;10.54;100.00
62420;BME280;48460;51.616;5.426;2023-03-12T12:38:57;100623.41;;;10.35;100.00
62420;BME280;48460;51.616;5.426;2023-03-12T12:41:46;100613.03;;;10.16;100.00
62420;BME280;48460;51.616;5.426;2023-03-12T12:44:20;100614.63;;;10.02;100.00
62420;BME280;48460;51.616;5.426;2023-03-12T12:46:58;100614.75;;;9.84;100.00
62420;BME280;48460;51.616;5.426;2023-03-12T12:53:20;100625.72;;;9.74;100.00
62420;BME280;48460;51.616;5.426;2023-03-12T13:14:33;100614.94;;;9.46;100.00
62420;BME280;48460;51.616;5.426;2023-03-12T13:17:20;100595.19;;;9.56;100.00
62420;BME280;48460;51.616;5.426;2023-03-12T13:19:57;100585.56;;;9.72;100.00
62420;BME280;48460;51.616;5.426;2023-03-12T13:27:39;100610.88;;;9.91;100.00
62420;BME280;48460;51.616;5.426;2023-03-12T13:33:12;100594.28;;;10.06;100.00
62420;BME280;48460;51.616;5.426;2023-03-12T13:38:57;100584.91;;;10.18;100.00
62420;BME280;48460;51.616;5.426;2023-03-12T13:52:32;100593.25;;;10.58;100.00
62420;BME280;48460;51.616;5.426;2023-03-12T13:55:35;100604.44;;;10.61;100.00
62420;BME280;48460;51.616;5.426;2023-03-12T13:58:12;100594.00;;;10.60;100.00
62420;BME280;48460;51.616;5.426;2023-03-12T14:01:02;100597.81;;;10.54;100.00
62420;BME280;48460;51.616;5.426;2023-03-12T14:03:51;100594.88;;;10.44;100.00
62420;BME280;48460;51.616;5.426;2023-03-12T14:06:23;100599.75;;;10.35;100.00
62420;BME280;48460;51.616;5.426;2023-03-12T14:09:12;100623.34;;;10.36;100.00
62420;BME280;48460;51.616;5.426;2023-03-12T14:17:39;100612.22;;;10.79;100.00
62420;BME280;48460;51.616;5.426;2023-03-12T14:20:18;100614.00;;;10.78;100.00
62420;BME280;48460;51.616;5.426;2023-03-12T14:22:54;100622.66;;;10.80;100.00
62420;BME280;48460;51.616;5.426;2023-03-12T14:25:50;100613.66;;;10.84;100.00
62420;BME280;48460;51.616;5.426;2023-03-12T14:28:24;100613.75;;;10.83;100.00
62420;BME280;48460;51.616;5.426;2023-03-12T14:34:29;100622.56;;;10.82;100.00
62420;BME280;48460;51.616;5.426;2023-03-12T14:36:46;100624.84;;;10.88;100.00
62420;BME280;48460;51.616;5.426;2023-03-12T14:39:42;100628.97;;;11.08;100.00
62420;BME280;48460;51.616;5.426;2023-03-12T14:42:13;100640.53;;;11.05;100.00
62420;BME280;48460;51.616;5.426;2023-03-12T14:44:53;100626.34;;;11.08;100.00
62420;BME280;48460;51.616;5.426;2023-03-12T14:50:50;100623.19;;;11.17;100.00
62420;BME280;48460;51.616;5.426;2023-03-12T14:53:22;100633.19;;;11.26;100.00
62420;BME280;48460;51.616;5.426;2023-03-12T14:56:13;100640.50;;;11.21;100.00
62420;BME280;48460;51.616;5.426;2023-03-12T14:58:50;100629.22;;;11.03;100.00
62420;BME280;48460;51.616;5.426;2023-03-12T15:01:37;100637.41;;;10.99;100.00
62420;BME280;48460;51.616;5.426;2023-03-12T15:04:11;100636.63;;;10.97;100.00
62420;BME280;48460;51.616;5.426;2023-03-12T15:06:55;100639.09;;;11.00;100.00
62420;BME280;48460;51.616;5.426;2023-03-12T15:09:26;100634.56;;;11.17;100.00
62420;BME280;48460;51.616;5.426;2023-03-12T15:12:05;100640.66;;;11.34;98.80
62420;BME280;48460;51.616;5.426;2023-03-12T15:14:39;100640.09;;;11.43;98.67
62420;BME280;48460;51.616;5.426;2023-03-12T15:17:06;100636.03;;;11.37;97.64
62420;BME280;48460;51.616;5.426;2023-03-12T15:19:35;100641.59;;;11.47;99.31
62420;BME280;48460;51.616;5.426;2023-03-12T15:22:07;100640.59;;;11.50;98.48
62420;BME280;48460;51.616;5.426;2023-03-12T15:24:40;100633.22;;;11.40;98.55
62420;BME280;48460;51.616;5.426;2023-03-12T15:29:58;100629.97;;;11.21;99.89
62420;BME280;48460;51.616;5.426;2023-03-12T15:32:25;100632.22;;;11.13;99.61
62420;BME280;48460;51.616;5.426;2023-03-12T15:35:13;100633.22;;;11.10;100.00
62420;BME280;48460;51.616;5.426;2023-03-12T15:37:49;100625.44;;;10.93;99.59
62420;BME280;48460;51.616;5.426;2023-03-12T15:40:26;100629.44;;;10.84;100.00
62420;BME280;48460;51.616;5.426;2023-03-12T15:43:04;100624.69;;;10.75;100.00
62420;BME280;48460;51.616;5.426;2023-03-12T15:46:02;100636.59;;;10.66;100.00
62420;BME280;48460;51.616;5.426;2023-03-12T15:48:37;100622.09;;;10.59;100.00
62420;BME280;48460;51.616;5.426;2023-03-12T15:51:34;100620.31;;;10.60;100.00
62420;BME280;48460;51.616;5.426;2023-03-12T15:54:22;100624.03;;;10.56;100.00
62420;BME280;48460;51.616;5.426;2023-03-12T15:56:51;100613.78;;;10.51;100.00
62420;BME280;48460;51.616;5.426;2023-03-12T16:03:01;100625.47;;;10.45;100.00
62420;BME280;48460;51.616;5.426;2023-03-12T16:05:33;100612.66;;;10.39;100.00
62420;BME280;48460;51.616;5.426;2023-03-12T16:08:29;100607.56;;;10.36;100.00
62420;BME280;48460;51.616;5.426;2023-03-12T16:14:47;100619.19;;;10.32;100.00
62420;BME280;48460;51.616;5.426;2023-03-12T16:17:16;100603.56;;;10.29;100.00
62420;BME280;48460;51.616;5.426;2023-03-12T16:19:54;100596.72;;;10.26;100.00
62420;BME280;48460;51.616;5.426;2023-03-12T16:22:22;100611.31;;;10.32;100.00
62420;BME280;48460;51.616;5.426;2023-03-12T16:25:03;100608.75;;;10.31;100.00
62420;BME280;48460;51.616;5.426;2023-03-12T16:27:34;100600.41;;;10.22;100.00
62420;BME280;48460;51.616;5.426;2023-03-12T16:30:27;100604.75;;;10.23;100.00
62420;BME280;48460;51.616;5.426;2023-03-12T16:32:57;100604.81;;;10.22;100.00
62420;BME280;48460;51.616;5.426;2023-03-12T16:35:28;100602.13;;;10.23;100.00
62420;BME280;48460;51.616;5.426;2023-03-12T16:38:15;100604.63;;;10.26;100.00
62420;BME280;48460;51.616;5.426;2023-03-12T16:40:49;100602.13;;;10.23;100.00
62420;BME280;48460;51.616;5.426;2023-03-12T16:43:22;100601.97;;;10.26;100.00
62420;BME280;48460;51.616;5.426;2023-03-12T16:45:53;100605.47;;;10.27;100.00
62420;BME280;48460;51.616;5.426;2023-03-12T16:48:37;100601.00;;;10.12;100.00
62420;BME280;48460;51.616;5.426;2023-03-12T16:51:20;100594.63;;;10.16;100.00
62420;BME280;48460;51.616;5.426;2023-03-12T16:54:02;100605.31;;;10.13;100.00
62420;BME280;48460;51.616;5.426;2023-03-12T16:56:33;100584.69;;;10.05;100.00
62420;BME280;48460;51.616;5.426;2023-03-12T16:59:03;100617.78;;;10.09;100.00
62420;BME280;48460;51.616;5.426;2023-03-12T17:01:31;100610.28;;;10.01;100.00
62420;BME280;48460;51.616;5.426;2023-03-12T17:04:09;100614.09;;;9.96;100.00
62420;BME280;48460;51.616;5.426;2023-03-12T17:06:36;100612.41;;;9.95;100.00
62420;BME280;48460;51.616;5.426;2023-03-12T17:09:20;100626.31;;;9.97;100.00
62420;BME280;48460;51.616;5.426;2023-03-12T17:11:48;100621.97;;;9.96;100.00
62420;BME280;48460;51.616;5.426;2023-03-12T17:14:18;100613.09;;;9.98;100.00
62420;BME280;48460;51.616;5.426;2023-03-12T17:16:46;100625.53;;;9.95;100.00
62420;BME280;48460;51.616;5.426;2023-03-12T17:19:11;100616.38;;;9.86;100.00
62420;BME280;48460;51.616;5.426;2023-03-12T17:21:37;100624.25;;;9.86;100.00
62420;BME280;48460;51.616;5.426;2023-03-12T17:24:12;100627.13;;;9.81;100.00
62420;BME280;48460;51.616;5.426;2023-03-12T17:26:43;100629.81;;;9.80;100.00
62420;BME280;48460;51.616;5.426;2023-03-12T17:29:11;100638.47;;;9.82;100.00
62420;BME280;48460;51.616;5.426;2023-03-12T17:31:36;100647.34;;;9.79;100.00
62420;BME280;48460;51.616;5.426;2023-03-12T17:34:02;100643.72;;;9.82;100.00
62420;BME280;48460;51.616;5.426;2023-03-12T17:36:36;100638.69;;;9.77;100.00
62420;BME280;48460;51.616;5.426;2023-03-12T17:39:07;100622.00;;;9.78;100.00
62420;BME280;48460;51.616;5.426;2023-03-12T17:41:35;100624.50;;;9.81;100.00
62420;BME280;48460;51.616;5.426;2023-03-12T17:44:11;100620.84;;;9.84;100.00
62420;BME280;48460;51.616;5.426;2023-03-12T17:46:53;100630.66;;;9.80;100.00
62420;BME280;48460;51.616;5.426;2023-03-12T17:49:20;100630.03;;;9.75;100.00
62420;BME280;48460;51.616;5.426;2023-03-12T17:51:58;100636.59;;;9.84;100.00
62420;BME280;48460;51.616;5.426;2023-03-12T17:54:48;100650.97;;;9.77;100.00
62420;BME280;48460;51.616;5.426;2023-03-12T17:57:23;100642.94;;;9.80;100.00
62420;BME280;48460;51.616;5.426;2023-03-12T18:00:01;100643.50;;;9.69;100.00
62420;BME280;48460;51.616;5.426;2023-03-12T18:02:40;100646.84;;;9.73;100.00
62420;BME280;48460;51.616;5.426;2023-03-12T18:05:58;100651.31;;;9.71;100.00
62420;BME280;48460;51.616;5.426;2023-03-12T18:08:26;100649.06;;;9.63;100.00
62420;BME280;48460;51.616;5.426;2023-03-12T18:11:01;100656.72;;;9.68;100.00
62420;BME280;48460;51.616;5.426;2023-03-12T18:13:29;100657.72;;;9.65;100.00
62420;BME280;48460;51.616;5.426;2023-03-12T18:16:00;100641.44;;;9.58;100.00
62420;BME280;48460;51.616;5.426;2023-03-12T18:18:28;100648.31;;;9.61;100.00
62420;BME280;48460;51.616;5.426;2023-03-12T18:20:54;100656.09;;;9.63;100.00
62420;BME280;48460;51.616;5.426;2023-03-12T18:23:22;100636.25;;;9.57;100.00
62420;BME280;48460;51.616;5.426;2023-03-12T18:25:54;100643.28;;;9.56;100.00
62420;BME280;48460;51.616;5.426;2023-03-12T18:28:28;100630.31;;;9.53;100.00
62420;BME280;48460;51.616;5.426;2023-03-12T18:34:09;100642.19;;;9.61;100.00
62420;BME280;48460;51.616;5.426;2023-03-12T18:36:40;100645.91;;;9.56;100.00
62420;BME280;48460;51.616;5.426;2023-03-12T18:39:08;100637.97;;;9.58;100.00
62420;BME280;48460;51.616;5.426;2023-03-12T18:41:53;100641.34;;;9.60;100.00
62420;BME280;48460;51.616;5.426;2023-03-12T18:44:21;100630.25;;;9.55;100.00
62420;BME280;48460;51.616;5.426;2023-03-12T18:46:50;100627.53;;;9.56;100.00
62420;BME280;48460;51.616;5.426;2023-03-12T18:49:23;100627.84;;;9.50;100.00
62420;BME280;48460;51.616;5.426;2023-03-12T18:51:56;100630.25;;;9.55;100.00
62420;BME280;48460;51.616;5.426;2023-03-12T18:54:22;100621.81;;;9.48;100.00
62420;BME280;48460;51.616;5.426;2023-03-12T18:57:19;100624.06;;;9.56;100.00
62420;BME280;48460;51.616;5.426;2023-03-12T18:59:52;100614.03;;;9.47;100.00
62420;BME280;48460;51.616;5.426;2023-03-12T19:02:20;100621.59;;;9.53;100.00
62420;BME280;48460;51.616;5.426;2023-03-12T19:05:11;100613.03;;;9.49;100.00
62420;BME280;48460;51.616;5.426;2023-03-12T19:11:06;100606.06;;;9.48;100.00
62420;BME280;48460;51.616;5.426;2023-03-12T19:17:26;100599.19;;;9.46;100.00
62420;BME280;48460;51.616;5.426;2023-03-12T19:23:22;100610.84;;;9.57;100.00
62420;BME280;48460;51.616;5.426;2023-03-12T19:26:14;100611.09;;;9.53;100.00
62420;BME280;48460;51.616;5.426;2023-03-12T19:28:40;100599.28;;;9.44;100.00
62420;BME280;48460;51.616;5.426;2023-03-12T19:40:51;100592.72;;;9.35;100.00
62420;BME280;48460;51.616;5.426;2023-03-12T20:03:36;100546.22;;;9.04;100.00
62420;BME280;48460;51.616;5.426;2023-03-12T20:09:44;100522.66;;;8.85;100.00
62420;BME280;48460;51.616;5.426;2023-03-12T20:15:54;100534.47;;;8.77;100.00
62420;BME280;48460;51.616;5.426;2023-03-12T20:18:25;100537.31;;;8.72;100.00
62420;BME280;48460;51.616;5.426;2023-03-12T20:20:53;100517.81;;;8.60;100.00
62420;BME280;48460;51.616;5.426;2023-03-12T20:23:28;100514.50;;;8.57;100.00
62420;BME280;48460;51.616;5.426;2023-03-12T20:26:14;100507.47;;;8.57;100.00
62420;BME280;48460;51.616;5.426;2023-03-12T20:47:56;100474.53;;;8.33;100.00
62420;BME280;48460;51.616;5.426;2023-03-12T20:57:21;100461.97;;;8.22;100.00
62420;BME280;48460;51.616;5.426;2023-03-12T20:59:54;100467.75;;;8.29;100.00
62420;BME280;48460;51.616;5.426;2023-03-12T21:06:18;100469.59;;;8.27;100.00
62420;BME280;48460;51.616;5.426;2023-03-12T21:08:48;100451.34;;;8.25;100.00
62420;BME280;48460;51.616;5.426;2023-03-12T21:11:23;100450.28;;;8.29;100.00
62420;BME280;48460;51.616;5.426;2023-03-12T21:13:51;100455.22;;;8.35;100.00
62420;BME280;48460;51.616;5.426;2023-03-12T21:16:19;100453.03;;;8.45;100.00
62420;BME280;48460;51.616;5.426;2023-03-12T21:18:56;100448.63;;;8.46;100.00
62420;BME280;48460;51.616;5.426;2023-03-12T21:21:24;100451.66;;;8.55;100.00
62420;BME280;48460;51.616;5.426;2023-03-12T21:23:57;100439.38;;;8.56;100.00
62420;BME280;48460;51.616;5.426;2023-03-12T21:26:27;100440.84;;;8.61;100.00
62420;BME280;48460;51.616;5.426;2023-03-12T21:29:11;100431.16;;;8.63;100.00
62420;BME280;48460;51.616;5.426;2023-03-12T21:31:36;100423.13;;;8.66;100.00
62420;BME280;48460;51.616;5.426;2023-03-12T21:34:04;100421.28;;;8.69;100.00
62420;BME280;48460;51.616;5.426;2023-03-12T21:36:32;100414.00;;;8.74;100.00
62420;BME280;48460;51.616;5.426;2023-03-12T21:38:59;100421.34;;;8.84;100.00
62420;BME280;48460;51.616;5.426;2023-03-12T21:41:25;100408.44;;;8.80;100.00
62420;BME280;48460;51.616;5.426;2023-03-12T21:43:55;100408.91;;;8.88;100.00
62420;BME280;48460;51.616;5.426;2023-03-12T21:46:23;100412.00;;;8.96;100.00
62420;BME280;48460;51.616;5.426;2023-03-12T21:48:54;100397.41;;;8.90;100.00
62420;BME280;48460;51.616;5.426;2023-03-12T21:51:19;100405.13;;;8.94;100.00
62420;BME280;48460;51.616;5.426;2023-03-12T21:53:51;100399.03;;;8.93;100.00
62420;BME280;48460;51.616;5.426;2023-03-12T21:56:19;100382.47;;;8.93;100.00
62420;BME280;48460;51.616;5.426;2023-03-12T21:58:45;100382.38;;;8.94;100.00
62420;BME280;48460;51.616;5.426;2023-03-12T22:01:24;100375.88;;;9.01;100.00
62420;BME280;48460;51.616;5.426;2023-03-12T22:03:53;100365.97;;;9.06;100.00
62420;BME280;48460;51.616;5.426;2023-03-12T22:06:18;100358.78;;;9.10;100.00
62420;BME280;48460;51.616;5.426;2023-03-12T22:08:45;100362.00;;;9.15;100.00
62420;BME280;48460;51.616;5.426;2023-03-12T22:11:21;100342.88;;;9.13;100.00
62420;BME280;48460;51.616;5.426;2023-03-12T22:13:46;100334.09;;;9.14;100.00
62420;BME280;48460;51.616;5.426;2023-03-12T22:16:22;100351.88;;;9.25;100.00
62420;BME280;48460;51.616;5.426;2023-03-12T22:18:48;100327.56;;;9.21;100.00
62420;BME280;48460;51.616;5.426;2023-03-12T22:21:23;100351.69;;;9.28;100.00
62420;BME280;48460;51.616;5.426;2023-03-12T22:23:59;100317.09;;;9.21;100.00
62420;BME280;48460;51.616;5.426;2023-03-12T22:26:27;100318.03;;;9.20;100.00
62420;BME280;48460;51.616;5.426;2023-03-12T22:28:59;100321.59;;;9.19;100.00
62420;BME280;48460;51.616;5.426;2023-03-12T22:31:30;100318.53;;;9.27;100.00
62420;BME280;48460;51.616;5.426;2023-03-12T22:33:58;100309.97;;;9.23;100.00
62420;BME280;48460;51.616;5.426;2023-03-12T22:36:26;100299.38;;;9.25;100.00
62420;BME280;48460;51.616;5.426;2023-03-12T22:38:54;100293.56;;;9.20;100.00
62420;BME280;48460;51.616;5.426;2023-03-12T22:41:24;100284.31;;;9.12;100.00
62420;BME280;48460;51.616;5.426;2023-03-12T22:43:56;100302.69;;;9.12;100.00
62420;BME280;48460;51.616;5.426;2023-03-12T22:46:25;100291.47;;;9.10;100.00
62420;BME280;48460;51.616;5.426;2023-03-12T22:48:56;100296.00;;;9.07;100.00
62420;BME280;48460;51.616;5.426;2023-03-12T22:51:26;100297.94;;;9.03;100.00